AirNav    Bose A20 Aviation Headset
 
 1662 users online  

02MI Fairplains Airpark
Greenville, Michigan, USA

GOING TO GREENVILLE?


FAA INFORMATION EFFECTIVE 15 AUGUST 2019

Location

FAA Identifier: 02MI
Lat/Long: 43-09-25.5200N 085-08-54.6600W
43-09.425333N 085-08.911000W
43.1570889,-85.1485167
(estimated)
Elevation: 850 ft. / 259 m (estimated)
From city: 5 miles E of GREENVILLE, MI
Time zone: UTC -4 (UTC -5 during Standard Time)
Zip code: 48838

Airport Operations

Airport use: Private use. Permission required prior to landing
Activation date: 07/2004
Control tower: no
ARTCC: CHICAGO CENTER
FSS: LANSING FLIGHT SERVICE STATION
Attendance: UNATNDD
Segmented circle: no

Airport Communications

WX AWOS-3 at Y70 (14 nm S): 118.9 (616-523-1852)

Nearby radio navigation aids

VOR radial/distance  VOR name  Freq  Var
VIOr039/27.0VICTORY VOR/DME115.9504W
MOPr218/33.2MOUNT PLEASANT VOR/DME110.6005W
HICr136/35.2WHITE CLOUD VOR/DME117.6001W
MKGr092/39.0MUSKEGON VORTAC115.2001W

Airport Services

Runway Information

Runway 9/27

Dimensions: 2000 x 100 ft. / 610 x 30 m
Surface: turf
RUNWAY 9  RUNWAY 27
Traffic pattern: leftright

Airport Ownership and Management from official FAA records

Ownership: Privately-owned
Owner: FAIRPLAINS AIRPARK
9363 GROW RD
GREENVILLE, MI 48838
Phone 616-225-8865
Manager: JASON JOHNSON
9363 GROW RD
GREENVILLE, MI 48838
Phone 616-225-8865

Airport Operational Statistics

Aircraft based on the field: 8
Single engine airplanes: 8
    

Additional Remarks

FAIRPLAINS AIRPARK IS 1.65 NM N OF THE INST PROCEDURE FINAL APCH FIX TO RY 28 6D6. ACFT ON FINAL APCH ARE DESCENDING OUT OF 2500 FT MSL ON THE APCH. THE MISSED APCH CRS FOR RY 10 AT AT 6D6 PASSES 1-1/2 MILES S OF THE PROPOSED SITE. ACFT ON MISSED APCH FM 6D6 ARE 1340 FT MSL.
6D6 IS 4.6 NM FM THE PROPOSED SITE, RY 28 IS 4.31 NM FM THE PROPOSED SITE.
FOR CD CTC GREAT LAKES APCH AT 269-459-3345, WHEN APCH CLSD CTC CHICAGO ARTCC AT 630-906-8921.

Instrument Procedures

There are no published instrument procedures at 02MI.

Some nearby airports with instrument procedures:

6D6 - Greenville Municipal Airport (5 nm W)
Y70 - Ionia County Airport (14 nm S)
13C - Lakeview Airport-Griffith Field (18 nm N)
KAMN - Gratiot Community Airport (22 nm NE)
8D4 - Paul C Miller-Sparta Airport (23 nm W)
 
Loc | Ops | Rwys | IFR | FBO | Links
Com | Nav | Svcs | Stats | Notes
Area around 02MI (Fairplains Airpark)
 
Road maps at: MapQuest Bing Google
 
Aerial photo
WARNING: Photo may not be current or correct
Aerial photo of 02MI (Fairplains Airpark)
Do you have a better or more recent aerial photo of Fairplains Airpark that you would like to share? If so, please send us your photo.

 
Sectional chart

 
Airport distance calculator
Flying to Fairplains Airpark? Find the distance to fly.

From to 02MI

Sunrise and sunset
Times for 21-Aug-2019
 Local
(UTC-4)
 Zulu
(UTC)
Morning civil twilight06:2410:24
Sunrise06:5410:54
Sunset20:3400:34
Evening civil twilight21:0401:04

Current date and time
Zulu (UTC)  21-Aug-2019 15:35:21
Local (UTC-4)  21-Aug-2019 11:35:21
 
METAR
KY70 
14nm S 
211518Z AUTO 25010KT 10SM SCT021 27/20 A2993 RMK AO2 T02710198
KAMN 
22nm NE 
211516Z AUTO 23007KT 10SM BKN011 25/21 A2993 RMK AO2
KGRR 
23nm SW 
211453Z 28008KT 10SM FEW036 SCT055 SCT250 27/20 A2994 RMK AO2 SLP133 T02670200 50009
TAF
KGRR 
23nm SW 
211257Z 2113/2212 23005KT P6SM FEW040 FM211500 27009KT P6SM VCSH BKN040 FM211800 30011G22KT P6SM BKN050 FM220000 33005KT P6SM SCT200 FM220900 04002KT 5SM BR OVC250
NOTAMs
Click for the latest NOTAMs
NOTAMs are issued by the DoD/FAA and will open in a separate window not controlled by AirNav.

 

 
 

Would you like to see your business listed on this page?

 If your business provides an interesting product or service to pilots, flight crews, aircraft, or users of the Fairplains Airpark, you should consider listing it here.  To start the listing process, click on the button below
 
Add a business
 

Other Pages about Fairplains Airpark

Update a link
 
Copyright © AirNav, LLC. All rights reserved. Privacy Policy  Contact